Time,TemperatureF,DewpointF,PressureIn,WindDirection,WindDirectionDegrees,WindSpeedMPH,WindSpeedGustMPH,Humidity,HourlyPrecipIn,Conditions,Clouds,dailyrainin,SolarRadiationWatts/m^2,SoftwareType,DateUTC
2013-03-04 00:00:00,29.5,24.1,29.72,NW,308,4.7,4.7,80,0.00,CLR,SKC,0.00,0.0,WeatherDisplay:10.37,2013-03-04 05:00:00,
2013-03-04 00:05:00,29.5,24.1,29.72,NNW,344,0.0,0.0,80,0.00,CLR,SKC,0.00,0.0,WeatherDisplay:10.37,2013-03-04 05:05:00,
2013-03-04 00:10:00,29.8,24.4,29.72,West,260,2.3,2.3,80,0.00,CLR,SKC,0.00,0.0,WeatherDisplay:10.37,2013-03-04 05:10:00,
2013-03-04 00:15:00,30.1,24.7,29.72,WNW,298,3.5,3.5,80,0.00,CLR,SKC,0.00,0.0,WeatherDisplay:10.37,2013-03-04 05:15:00,
2013-03-04 00:20:00,29.4,24.0,29.72,NW,322,5.8,5.8,80,0.00,CLR,SKC,0.00,0.0,WeatherDisplay:10.37,2013-03-04 05:20:00,
2013-03-04 00:25:00,30.0,24.6,29.72,WNW,302,0.0,0.0,80,0.00,CLR,SKC,0.00,0.0,WeatherDisplay:10.37,2013-03-04 05:25:00,
2013-03-04 00:30:00,29.3,23.9,29.72,NW,305,4.6,4.6,80,0.00,CLR,SKC,0.00,0.0,WeatherDisplay:10.37,2013-03-04 05:30:00,
2013-03-04 00:36:00,30.0,24.6,29.72,WSW,253,3.5,0.0,80,0.00,CLR,SKC,0.00,0.0,WeatherDisplay:10.37,2013-03-04 05:36:00,
2013-03-04 00:41:00,29.1,23.7,29.72,WSW,253,0.0,0.0,80,0.00,CLR,SKC,0.00,0.0,WeatherDisplay:10.37,2013-03-04 05:41:00,
2013-03-04 00:46:00,29.4,24.0,29.72,WSW,253,0.0,0.0,80,0.00,CLR,SKC,0.00,0.0,WeatherDisplay:10.37,2013-03-04 05:46:00,
2013-03-04 00:51:00,29.6,24.2,29.72,NW,309,5.8,5.8,80,0.00,CLR,SKC,0.00,0.0,WeatherDisplay:10.37,2013-03-04 05:51:00,
2013-03-04 00:56:00,29.0,23.6,29.72,NNW,335,4.6,0.0,80,0.00,CLR,SKC,0.00,0.0,WeatherDisplay:10.37,2013-03-04 05:56:00,
2013-03-04 01:01:00,28.7,23.3,29.72,NNE,17,2.3,0.0,80,0.00,CLR,SKC,0.00,0.0,WeatherDisplay:10.37,2013-03-04 06:01:00,
2013-03-04 01:06:00,28.8,23.4,29.72,NNE,17,0.0,0.0,80,0.00,CLR,SKC,0.00,0.0,WeatherDisplay:10.37,2013-03-04 06:06:00,
2013-03-04 01:11:00,29.6,24.2,29.72,NNE,17,0.0,0.0,80,0.00,CLR,SKC,0.00,0.0,WeatherDisplay:10.37,2013-03-04 06:11:00,
2013-03-04 01:16:00,28.6,23.2,29.72,NNE,17,0.0,0.0,80,0.00,CLR,SKC,0.00,0.0,WeatherDisplay:10.37,2013-03-04 06:16:00,
2013-03-04 01:21:00,29.2,23.8,29.72,NNE,17,0.0,0.0,80,0.00,CLR,SKC,0.00,0.0,WeatherDisplay:10.37,2013-03-04 06:21:00,
2013-03-04 01:26:00,29.2,23.8,29.72,NW,312,6.9,6.9,80,0.00,CLR,SKC,0.00,0.0,WeatherDisplay:10.37,2013-03-04 06:26:00,
2013-03-04 01:31:00,28.6,22.9,29.72,NW,319,0.0,0.0,79,0.00,CLR,SKC,0.00,0.0,WeatherDisplay:10.37,2013-03-04 06:31:00,
2013-03-04 01:36:00,28.2,22.8,29.72,NW,309,6.9,6.9,80,0.00,CLR,SKC,0.00,0.0,WeatherDisplay:10.37,2013-03-04 06:36:00,
2013-03-04 01:41:00,28.7,23.3,29.73,West,270,3.5,3.5,80,0.00,CLR,SKC,0.00,0.0,WeatherDisplay:10.37,2013-03-04 06:41:00,
2013-03-04 01:46:00,28.9,23.5,29.72,NW,323,0.0,0.0,80,0.00,CLR,SKC,0.00,0.0,WeatherDisplay:10.37,2013-03-04 06:46:00,
2013-03-04 01:51:00,28.4,23.0,29.73,NW,308,6.9,0.0,80,0.00,CLR,SKC,0.00,0.0,WeatherDisplay:10.37,2013-03-04 06:51:00,
2013-03-04 01:56:00,28.6,22.9,29.72,WNW,287,0.0,0.0,79,0.00,CLR,SKC,0.00,0.0,WeatherDisplay:10.37,2013-03-04 06:56:00,
2013-03-04 02:01:00,28.6,22.9,29.73,WNW,292,9.2,9.2,79,0.00,CLR,SKC,0.00,0.0,WeatherDisplay:10.37,2013-03-04 07:01:00,
2013-03-04 02:06:00,28.5,23.1,29.73,NNW,339,0.0,0.0,80,0.00,CLR,SKC,0.00,0.0,WeatherDisplay:10.37,2013-03-04 07:06:00,
2013-03-04 02:11:00,28.1,22.4,29.72,NW,315,9.2,9.2,79,0.00,CLR,SKC,0.00,0.0,WeatherDisplay:10.37,2013-03-04 07:11:00,
2013-03-04 02:16:00,28.3,22.6,29.72,West,270,3.5,3.5,79,0.00,CLR,SKC,0.00,0.0,WeatherDisplay:10.37,2013-03-04 07:16:00,
2013-03-04 02:21:00,28.4,22.7,29.72,WNW,289,6.9,6.9,79,0.00,CLR,SKC,0.00,0.0,WeatherDisplay:10.37,2013-03-04 07:21:00,
2013-03-04 02:26:00,28.3,22.6,29.72,West,270,4.8,4.8,79,0.00,CLR,SKC,0.00,0.0,WeatherDisplay:10.37,2013-03-04 07:26:00,
2013-03-04 02:31:00,28.0,22.3,29.72,North,360,0.0,0.2,79,0.00,CLR,SKC,0.00,0.0,WeatherDisplay:10.37,2013-03-04 07:31:00,
2013-03-04 02:36:00,28.1,22.7,29.72,NNW,342,2.3,0.0,80,0.00,CLR,SKC,0.00,0.0,WeatherDisplay:10.37,2013-03-04 07:36:00,
2013-03-04 02:41:00,27.9,22.2,29.72,WNW,301,6.9,6.9,79,0.00,CLR,SKC,0.00,0.0,WeatherDisplay:10.37,2013-03-04 07:41:00,
2013-03-04 02:46:00,28.4,23.0,29.72,NNW,340,5.8,0.0,80,0.00,CLR,SKC,0.00,0.0,WeatherDisplay:10.37,2013-03-04 07:46:00,
2013-03-04 02:51:00,28.1,22.4,29.72,North,11,4.6,0.0,79,0.00,CLR,SKC,0.00,0.0,WeatherDisplay:10.37,2013-03-04 07:51:00,
2013-03-04 02:56:00,28.0,22.3,29.72,WNW,299,4.6,0.0,79,0.00,CLR,SKC,0.00,0.0,WeatherDisplay:10.37,2013-03-04 07:56:00,
2013-03-04 03:01:00,27.8,22.1,29.72,NW,312,5.8,5.8,79,0.00,CLR,SKC,0.00,0.0,WeatherDisplay:10.37,2013-03-04 08:01:00,
2013-03-04 03:06:00,28.2,22.5,29.72,West,278,5.8,5.8,79,0.00,CLR,SKC,0.00,0.0,WeatherDisplay:10.37,2013-03-04 08:06:00,
2013-03-04 03:12:00,28.2,22.8,29.72,West,278,0.0,0.0,80,0.00,CLR,SKC,0.00,0.0,WeatherDisplay:10.37,2013-03-04 08:12:00,
2013-03-04 03:17:00,28.6,22.9,29.72,West,278,0.0,0.0,79,0.00,CLR,SKC,0.00,0.0,WeatherDisplay:10.37,2013-03-04 08:17:00,
2013-03-04 03:22:00,28.6,22.9,29.72,West,278,0.0,0.0,79,0.00,CLR,SKC,0.00,0.0,WeatherDisplay:10.37,2013-03-04 08:22:00,
2013-03-04 03:27:00,28.5,23.1,29.73,West,278,0.0,0.0,80,0.00,CLR,SKC,0.00,0.0,WeatherDisplay:10.37,2013-03-04 08:27:00,
2013-03-04 03:32:00,28.2,22.8,29.73,West,278,0.0,0.0,80,0.00,CLR,SKC,0.00,0.0,WeatherDisplay:10.37,2013-03-04 08:32:00,
2013-03-04 03:37:00,28.2,22.8,29.73,West,278,0.0,0.0,80,0.00,CLR,SKC,0.00,0.0,WeatherDisplay:10.37,2013-03-04 08:37:00,
2013-03-04 03:42:00,28.1,22.7,29.73,North,349,4.6,4.6,80,0.00,CLR,SKC,0.00,0.0,WeatherDisplay:10.37,2013-03-04 08:42:00,
2013-03-04 03:47:00,27.6,22.2,29.73,NW,305,0.0,0.0,80,0.00,CLR,SKC,0.00,0.0,WeatherDisplay:10.37,2013-03-04 08:47:00,
2013-03-04 03:52:00,27.9,22.5,29.73,NW,305,0.0,0.0,80,0.00,CLR,SKC,0.00,0.0,WeatherDisplay:10.37,2013-03-04 08:52:00,
2013-03-04 03:57:00,27.5,22.4,29.73,NW,305,0.0,0.0,81,0.00,CLR,SKC,0.00,0.0,WeatherDisplay:10.37,2013-03-04 08:57:00,
2013-03-04 04:02:00,28.1,23.0,29.73,NNW,333,5.8,5.8,81,0.00,CLR,SKC,0.00,0.0,WeatherDisplay:10.37,2013-03-04 09:02:00,
2013-03-04 04:07:00,28.0,22.9,29.73,NNW,336,0.0,0.0,81,0.00,CLR,SKC,0.00,0.0,WeatherDisplay:10.37,2013-03-04 09:07:00,
2013-03-04 04:12:00,27.7,22.9,29.73,NNW,336,0.0,0.0,82,0.00,CLR,SKC,0.00,0.0,WeatherDisplay:10.37,2013-03-04 09:12:00,
2013-03-04 04:17:00,28.0,23.2,29.73,NNW,336,0.0,0.0,82,0.00,CLR,SKC,0.00,0.0,WeatherDisplay:10.37,2013-03-04 09:17:00,
2013-03-04 04:22:00,27.8,23.0,29.73,NNE,17,0.0,0.0,82,0.00,CLR,SKC,0.00,0.0,WeatherDisplay:10.37,2013-03-04 09:22:00,
2013-03-04 04:27:00,27.6,22.8,29.73,NNE,17,0.0,0.0,82,0.00,CLR,SKC,0.00,0.0,WeatherDisplay:10.37,2013-03-04 09:27:00,
2013-03-04 04:32:00,27.4,22.6,29.73,NNE,17,0.0,0.0,82,0.00,CLR,SKC,0.00,0.0,WeatherDisplay:10.37,2013-03-04 09:32:00,
2013-03-04 04:37:00,27.5,22.7,29.73,WNW,296,0.0,0.0,82,0.00,CLR,SKC,0.00,0.0,WeatherDisplay:10.37,2013-03-04 09:37:00,
2013-03-04 04:42:00,27.7,22.9,29.73,West,274,5.8,5.8,82,0.00,CLR,SKC,0.00,0.0,WeatherDisplay:10.37,2013-03-04 09:42:00,
2013-03-04 04:47:00,27.2,22.4,29.73,WNW,285,0.0,0.0,82,0.00,CLR,SKC,0.00,0.0,WeatherDisplay:10.37,2013-03-04 09:47:00,
2013-03-04 04:52:00,27.3,22.5,29.73,East,97,4.4,4.4,82,0.00,CLR,SKC,0.00,0.0,WeatherDisplay:10.37,2013-03-04 09:52:00,
2013-03-04 04:57:00,27.6,23.1,29.74,ENE,62,0.0,0.0,83,0.00,CLR,SKC,0.00,0.0,WeatherDisplay:10.37,2013-03-04 09:57:00,
2013-03-04 05:02:00,27.9,23.4,29.73,NW,326,6.9,6.9,83,0.00,CLR,SKC,0.00,0.0,WeatherDisplay:10.37,2013-03-04 10:02:00,
2013-03-04 05:07:00,27.3,22.8,29.73,SSW,209,6.9,6.9,83,0.00,CLR,SKC,0.00,0.0,WeatherDisplay:10.37,2013-03-04 10:07:00,
2013-03-04 05:12:00,27.5,23.0,29.74,NE,37,5.8,5.8,83,0.00,CLR,SKC,0.00,0.0,WeatherDisplay:10.37,2013-03-04 10:12:00,
2013-03-04 05:17:00,27.6,23.1,29.74,NNW,332,10.4,10.4,83,0.00,CLR,SKC,0.00,0.0,WeatherDisplay:10.37,2013-03-04 10:17:00,
2013-03-04 05:22:00,27.1,22.6,29.74,NW,319,5.8,0.0,83,0.00,CLR,SKC,0.00,0.0,WeatherDisplay:10.37,2013-03-04 10:22:00,
2013-03-04 05:27:00,27.5,23.0,29.74,NNE,17,6.9,6.9,83,0.00,CLR,SKC,0.00,0.0,WeatherDisplay:10.37,2013-03-04 10:27:00,
2013-03-04 05:32:00,27.7,23.2,29.74,NNW,340,4.6,4.6,83,0.00,CLR,SKC,0.00,0.0,WeatherDisplay:10.37,2013-03-04 10:32:00,
2013-03-04 05:37:00,27.4,23.2,29.74,WNW,301,7.1,7.1,84,0.00,CLR,SKC,0.00,0.0,WeatherDisplay:10.37,2013-03-04 10:37:00,
2013-03-04 05:42:00,27.3,23.1,29.74,North,7,4.6,4.6,84,0.00,CLR,SKC,0.00,0.0,WeatherDisplay:10.37,2013-03-04 10:42:00,
2013-03-04 05:47:00,27.2,23.0,29.74,NE,49,5.8,5.8,84,0.00,CLR,SKC,0.00,0.0,WeatherDisplay:10.37,2013-03-04 10:47:00,
2013-03-04 05:52:00,27.3,22.8,29.74,NE,49,0.0,0.0,83,0.00,CLR,SKC,0.00,0.0,WeatherDisplay:10.37,2013-03-04 10:52:00,
2013-03-04 05:57:00,27.0,22.5,29.74,North,8,4.6,0.0,83,0.00,CLR,SKC,0.00,0.0,WeatherDisplay:10.37,2013-03-04 10:57:00,
2013-03-04 06:02:00,26.9,22.4,29.74,NNE,16,5.8,0.0,83,0.00,CLR,SKC,0.00,0.0,WeatherDisplay:10.37,2013-03-04 11:02:00,
2013-03-04 06:07:00,27.2,22.7,29.74,North,7,1.2,0.0,83,0.00,CLR,SKC,0.00,0.0,WeatherDisplay:10.37,2013-03-04 11:07:00,
2013-03-04 06:12:00,27.2,23.0,29.73,NNW,332,6.2,6.2,84,0.00,CLR,SKC,0.00,0.0,WeatherDisplay:10.37,2013-03-04 11:12:00,
2013-03-04 06:17:00,27.5,23.0,29.74,NNE,21,5.8,5.8,83,0.00,CLR,SKC,0.00,0.0,WeatherDisplay:10.37,2013-03-04 11:17:00,
2013-03-04 06:22:00,27.3,22.8,29.74,NE,56,15.0,15.0,83,0.00,CLR,SKC,0.00,0.0,WeatherDisplay:10.37,2013-03-04 11:22:00,
2013-03-04 06:27:00,27.5,23.0,29.74,SE,126,6.9,6.9,83,0.00,CLR,SKC,0.00,0.0,WeatherDisplay:10.37,2013-03-04 11:27:00,
2013-03-04 06:32:00,27.3,22.8,29.74,NW,322,7.8,7.8,83,0.00,CLR,SKC,0.00,0.0,WeatherDisplay:10.37,2013-03-04 11:32:00,
2013-03-04 06:37:00,27.6,23.1,29.74,WSW,241,8.1,8.1,83,0.00,CLR,SKC,0.00,0.0,WeatherDisplay:10.37,2013-03-04 11:37:00,
2013-03-04 06:43:00,27.8,23.3,29.74,North,356,6.9,6.9,83,0.00,CLR,SKC,0.00,0.0,WeatherDisplay:10.37,2013-03-04 11:43:00,
2013-03-04 06:47:00,27.8,23.3,29.74,WNW,298,6.9,6.9,83,0.00,CLR,SKC,0.00,0.0,WeatherDisplay:10.37,2013-03-04 11:47:00,
2013-03-04 06:53:00,28.3,23.8,29.74,NNW,344,5.8,5.8,83,0.00,CLR,SKC,0.00,0.0,WeatherDisplay:10.37,2013-03-04 11:53:00,
2013-03-04 06:58:00,28.2,23.7,29.74,NNW,343,0.0,0.0,83,0.00,CLR,SKC,0.00,0.0,WeatherDisplay:10.37,2013-03-04 11:58:00,
2013-03-04 07:03:00,28.8,24.0,29.75,NW,306,5.8,5.8,82,0.00,CLR,SKC,0.00,0.0,WeatherDisplay:10.37,2013-03-04 12:03:00,
2013-03-04 07:08:00,28.9,24.1,29.75,NW,316,0.0,0.0,82,0.00,CLR,SKC,0.00,0.0,WeatherDisplay:10.37,2013-03-04 12:08:00,
2013-03-04 07:13:00,29.0,24.2,29.75,NNE,20,5.8,5.8,82,0.00,CLR,SKC,0.00,0.0,WeatherDisplay:10.37,2013-03-04 12:13:00,
2013-03-04 07:18:00,29.7,24.6,29.75,NNE,20,7.8,7.8,81,0.00,CLR,SKC,0.00,0.0,WeatherDisplay:10.37,2013-03-04 12:18:00,
2013-03-04 07:23:00,29.6,24.5,29.75,NW,323,4.6,4.6,81,0.00,CLR,SKC,0.00,0.0,WeatherDisplay:10.37,2013-03-04 12:23:00,
2013-03-04 07:28:00,29.8,24.4,29.75,NNE,18,5.8,5.8,80,0.00,CLR,SKC,0.00,0.0,WeatherDisplay:10.37,2013-03-04 12:28:00,
2013-03-04 07:33:00,29.9,24.5,29.75,WNW,284,6.9,6.9,80,0.00,CLR,SKC,0.00,0.0,WeatherDisplay:10.37,2013-03-04 12:33:00,
2013-03-04 07:38:00,30.3,24.6,29.75,WNW,291,11.5,11.5,79,0.00,CLR,SKC,0.00,0.0,WeatherDisplay:10.37,2013-03-04 12:38:00,
2013-03-04 07:43:00,30.4,24.7,29.75,NNW,342,5.8,5.8,79,0.00,CLR,SKC,0.00,0.0,WeatherDisplay:10.37,2013-03-04 12:43:00,
2013-03-04 07:48:00,30.7,25.0,29.75,NNW,342,0.0,0.0,79,0.00,CLR,SKC,0.00,0.0,WeatherDisplay:10.37,2013-03-04 12:48:00,
2013-03-04 07:54:00,30.6,24.9,29.75,WNW,299,8.1,8.1,79,0.00,CLR,SKC,0.00,0.0,WeatherDisplay:10.37,2013-03-04 12:54:00,
2013-03-04 07:59:00,30.8,24.7,29.75,NW,322,8.1,8.1,78,0.00,CLR,SKC,0.00,0.0,WeatherDisplay:10.37,2013-03-04 12:59:00,
2013-03-04 08:04:00,30.3,24.3,29.76,WNW,292,9.2,9.2,78,0.00,OVC,SKC,0.00,0.0,WeatherDisplay:10.37,2013-03-04 13:04:00,
2013-03-04 08:09:00,30.7,24.7,29.76,NW,323,6.9,6.9,78,0.00,OVC,SKC,0.00,0.0,WeatherDisplay:10.37,2013-03-04 13:09:00,
2013-03-04 08:14:00,30.4,24.4,29.76,NW,323,8.1,8.1,78,0.00,OVC,SKC,0.00,0.0,WeatherDisplay:10.37,2013-03-04 13:14:00,
2013-03-04 08:19:00,30.7,24.7,29.76,NNW,332,10.4,10.4,78,0.00,OVC,SKC,0.00,0.0,WeatherDisplay:10.37,2013-03-04 13:19:00,
2013-03-04 08:24:00,30.7,24.7,29.76,NNW,342,8.1,8.1,78,0.00,OVC,SKC,0.00,0.0,WeatherDisplay:10.37,2013-03-04 13:24:00,
2013-03-04 08:29:00,30.9,24.8,29.75,North,349,15.0,15.0,78,0.00,OVC,SKC,0.00,0.0,WeatherDisplay:10.37,2013-03-04 13:29:00,
2013-03-04 08:34:00,31.1,25.0,29.75,WNW,287,9.8,9.8,78,0.00,OVC,SKC,0.00,0.0,WeatherDisplay:10.37,2013-03-04 13:34:00,
2013-03-04 08:39:00,30.8,24.7,29.75,West,264,12.7,12.7,78,0.00,OVC,SKC,0.00,0.0,WeatherDisplay:10.37,2013-03-04 13:39:00,
2013-03-04 08:44:00,30.9,24.8,29.75,NNW,344,11.5,11.5,78,0.00,OVC,SKC,0.00,0.0,WeatherDisplay:10.37,2013-03-04 13:44:00,
2013-03-04 08:49:00,31.4,25.3,29.75,NW,313,9.2,9.2,78,0.00,OVC,SKC,0.00,0.0,WeatherDisplay:10.37,2013-03-04 13:49:00,
2013-03-04 08:54:00,31.6,25.2,29.75,NNW,343,9.2,9.2,77,0.00,OVC,SKC,0.00,0.0,WeatherDisplay:10.37,2013-03-04 13:54:00,
2013-03-04 08:59:00,32.0,25.3,29.75,North,356,13.8,13.8,76,0.00,OVC,SKC,0.00,0.0,WeatherDisplay:10.37,2013-03-04 13:59:00,
2013-03-04 09:04:00,32.2,25.5,29.75,North,3,10.4,10.4,76,0.00,OVC,SKC,0.00,0.0,WeatherDisplay:10.37,2013-03-04 14:04:00,
2013-03-04 09:09:00,32.8,25.7,29.75,NNE,28,8.1,8.1,75,0.00,OVC,SKC,0.00,0.0,WeatherDisplay:10.37,2013-03-04 14:09:00,
2013-03-04 09:14:00,33.6,26.5,29.75,WNW,282,11.5,11.5,75,0.00,OVC,SKC,0.00,0.0,WeatherDisplay:10.37,2013-03-04 14:14:00,
2013-03-04 09:19:00,33.9,26.5,29.75,NW,319,15.0,15.0,74,0.00,OVC,SKC,0.00,0.0,WeatherDisplay:10.37,2013-03-04 14:19:00,
2013-03-04 09:24:00,34.0,26.6,29.75,West,277,11.5,11.5,74,0.00,OVC,SKC,0.00,0.0,WeatherDisplay:10.37,2013-03-04 14:24:00,
2013-03-04 09:29:00,34.4,27.0,29.75,NW,320,8.1,8.1,74,0.00,OVC,SKC,0.00,0.0,WeatherDisplay:10.37,2013-03-04 14:29:00,
2013-03-04 09:34:00,35.4,27.6,29.74,West,271,10.4,10.4,73,0.00,OVC,SKC,0.00,0.0,WeatherDisplay:10.37,2013-03-04 14:34:00,
2013-03-04 09:39:00,35.7,27.6,29.74,WNW,301,8.1,8.1,72,0.00,OVC,SKC,0.00,0.0,WeatherDisplay:10.37,2013-03-04 14:39:00,
2013-03-04 09:44:00,36.3,27.8,29.74,North,352,5.8,5.8,71,0.00,OVC,SKC,0.00,0.0,WeatherDisplay:10.37,2013-03-04 14:44:00,
2013-03-04 09:49:00,36.7,27.8,29.74,West,275,9.2,9.2,70,0.00,OVC,SKC,0.00,0.0,WeatherDisplay:10.37,2013-03-04 14:49:00,
2013-03-04 09:54:00,36.9,28.0,29.74,NW,326,12.7,12.7,70,0.00,OVC,SKC,0.00,0.0,WeatherDisplay:10.37,2013-03-04 14:54:00,
2013-03-04 09:59:00,36.9,28.0,29.74,WNW,294,6.9,6.9,70,0.00,OVC,SKC,0.00,0.0,WeatherDisplay:10.37,2013-03-04 14:59:00,
2013-03-04 10:04:00,37.8,28.9,29.74,WNW,285,8.8,8.8,70,0.00,OVC,SKC,0.00,0.0,WeatherDisplay:10.37,2013-03-04 15:04:00,
2013-03-04 10:09:00,38.2,28.6,29.74,NNW,346,9.2,9.2,68,0.00,OVC,SKC,0.00,0.0,WeatherDisplay:10.37,2013-03-04 15:09:00,
2013-03-04 10:14:00,37.4,27.8,29.74,NW,320,5.8,5.8,68,0.00,OVC,SKC,0.00,0.0,WeatherDisplay:10.37,2013-03-04 15:14:00,
2013-03-04 10:19:00,37.3,28.1,29.74,North,8,10.4,10.4,69,0.00,OVC,SKC,0.00,0.0,WeatherDisplay:10.37,2013-03-04 15:19:00,
2013-03-04 10:24:00,37.0,27.8,29.74,WNW,298,9.2,9.2,69,0.00,OVC,SKC,0.00,0.0,WeatherDisplay:10.37,2013-03-04 15:24:00,
2013-03-04 10:29:00,37.7,28.4,29.74,NW,326,8.1,8.1,69,0.00,OVC,SKC,0.00,0.0,WeatherDisplay:10.37,2013-03-04 15:29:00,
2013-03-04 10:34:00,38.0,28.4,29.74,WNW,287,5.8,5.8,68,0.00,OVC,SKC,0.00,0.0,WeatherDisplay:10.37,2013-03-04 15:34:00,
2013-03-04 10:39:00,38.2,28.6,29.74,NW,304,8.1,8.1,68,0.00,OVC,SKC,0.00,0.0,WeatherDisplay:10.37,2013-03-04 15:39:00,
2013-03-04 10:44:00,37.7,27.7,29.74,NNW,330,8.1,8.1,67,0.00,OVC,SKC,0.00,0.0,WeatherDisplay:10.37,2013-03-04 15:44:00,
2013-03-04 10:49:00,37.3,27.7,29.74,NNW,337,8.1,8.1,68,0.00,OVC,SKC,0.00,0.0,WeatherDisplay:10.37,2013-03-04 15:49:00,
2013-03-04 10:54:00,37.0,27.4,29.74,NNW,330,11.5,11.5,68,0.00,OVC,SKC,0.00,0.0,WeatherDisplay:10.37,2013-03-04 15:54:00,
2013-03-04 10:59:00,37.2,27.6,29.74,WNW,296,11.5,11.5,68,0.00,OVC,SKC,0.00,0.0,WeatherDisplay:10.37,2013-03-04 15:59:00,
2013-03-04 11:05:00,36.9,27.3,29.74,NNW,340,13.8,13.8,68,0.00,OVC,SKC,0.00,0.0,WeatherDisplay:10.37,2013-03-04 16:05:00,
2013-03-04 11:10:00,37.1,27.9,29.74,NNW,328,8.1,8.1,69,0.00,OVC,SKC,0.00,0.0,WeatherDisplay:10.37,2013-03-04 16:10:00,
2013-03-04 11:15:00,37.0,27.5,29.74,NW,326,8.0,15.0,68,0.00,CLR,SKC,0.00,0.0,WeatherDisplay:10.37,2013-03-04 16:15:00,
2013-03-04 11:20:00,37.4,27.8,29.74,NW,325,9.2,9.2,68,0.00,OVC,SKC,0.00,0.0,WeatherDisplay:10.37,2013-03-04 16:20:00,
2013-03-04 11:25:00,37.7,27.8,29.74,NNW,342,6.0,17.0,67,0.00,CLR,SKC,0.00,0.0,WeatherDisplay:10.37,2013-03-04 16:25:00,
2013-03-04 11:29:00,38.2,28.2,29.74,NW,315,11.6,11.6,67,0.00,OVC,SKC,0.00,0.0,WeatherDisplay:10.37,2013-03-04 16:29:00,
2013-03-04 11:35:00,38.2,27.9,29.74,NNW,332,2.0,13.0,66,0.00,CLR,SKC,0.00,0.0,WeatherDisplay:10.37,2013-03-04 16:35:00,
2013-03-04 11:40:00,39.0,28.2,29.74,WNW,284,15.3,15.3,65,0.00,OVC,SKC,0.00,0.0,WeatherDisplay:10.37,2013-03-04 16:40:00,
2013-03-04 11:45:00,38.8,28.4,29.73,NW,323,6.0,16.0,66,0.00,CLR,SKC,0.00,0.0,WeatherDisplay:10.37,2013-03-04 16:45:00,
2013-03-04 11:50:00,38.9,28.5,29.73,NNW,330,10.4,10.4,66,0.00,OVC,SKC,0.00,0.0,WeatherDisplay:10.37,2013-03-04 16:50:00,
2013-03-04 11:55:00,39.4,28.6,29.73,NW,324,6.0,12.0,65,0.00,CLR,SKC,0.00,0.0,WeatherDisplay:10.37,2013-03-04 16:55:00,
2013-03-04 12:00:00,39.0,27.8,29.73,NNW,332,15.0,15.0,64,0.00,OVC,SKC,0.00,0.0,WeatherDisplay:10.37,2013-03-04 17:00:00,
2013-03-04 12:05:00,38.4,27.7,29.73,NW,326,9.0,17.0,65,0.00,CLR,SKC,0.00,0.0,WeatherDisplay:10.37,2013-03-04 17:05:00,
2013-03-04 12:10:00,38.0,27.6,29.73,NNW,333,11.5,11.5,66,0.00,OVC,SKC,0.00,0.0,WeatherDisplay:10.37,2013-03-04 17:10:00,
2013-03-04 12:15:00,37.8,27.5,29.73,North,360,13.8,13.8,66,0.00,OVC,SKC,0.00,0.0,WeatherDisplay:10.37,2013-03-04 17:15:00,
2013-03-04 12:20:00,37.8,27.5,29.73,NW,306,11.5,11.5,66,0.00,OVC,SKC,0.00,0.0,WeatherDisplay:10.37,2013-03-04 17:20:00,
2013-03-04 12:25:00,38.5,28.1,29.73,North,3,10.4,10.4,66,0.00,OVC,SKC,0.00,0.0,WeatherDisplay:10.37,2013-03-04 17:25:00,
2013-03-04 12:30:00,38.8,28.0,29.73,West,267,8.1,8.7,65,0.00,BKN,SKC,0.00,1.0,WeatherDisplay:10.37,2013-03-04 17:30:00,
2013-03-04 12:35:00,39.2,28.4,29.73,NNW,347,8.3,8.3,65,0.00,BKN,SKC,0.00,1.6,WeatherDisplay:10.37,2013-03-04 17:35:00,
2013-03-04 12:40:00,39.6,28.8,29.73,WNW,292,10.4,10.4,65,0.00,BKN,SKC,0.00,2.4,WeatherDisplay:10.37,2013-03-04 17:40:00,
2013-03-04 12:45:00,39.3,28.1,29.73,NNE,28,11.5,11.5,64,0.00,BKN,SKC,0.00,2.7,WeatherDisplay:10.37,2013-03-04 17:45:00,
2013-03-04 12:50:00,39.5,28.3,29.73,NNW,332,12.7,12.7,64,0.00,BKN,SKC,0.00,5.5,WeatherDisplay:10.37,2013-03-04 17:50:00,
2013-03-04 12:55:00,40.0,28.4,29.73,North,354,13.8,13.8,63,0.00,BKN,SKC,0.00,6.0,WeatherDisplay:10.37,2013-03-04 17:55:00,
2013-03-04 13:00:00,40.4,28.4,29.73,NW,326,9.2,9.2,62,0.00,BKN,SKC,0.00,4.7,WeatherDisplay:10.37,2013-03-04 18:00:00,
2013-03-04 13:05:00,39.9,28.7,29.73,North,6,10.4,10.4,64,0.00,BKN,SKC,0.00,6.0,WeatherDisplay:10.37,2013-03-04 18:05:00,
2013-03-04 13:10:00,39.6,28.4,29.72,North,8,9.9,9.9,64,0.00,BKN,SKC,0.00,6.7,WeatherDisplay:10.37,2013-03-04 18:10:00,
2013-03-04 13:15:00,39.5,28.3,29.72,WNW,288,9.9,9.9,64,0.00,BKN,SKC,0.00,9.7,WeatherDisplay:10.37,2013-03-04 18:15:00,
2013-03-04 13:20:00,39.3,28.1,29.72,NW,319,15.0,15.0,64,0.00,BKN,SKC,0.00,8.0,WeatherDisplay:10.37,2013-03-04 18:20:00,
2013-03-04 13:25:00,39.1,27.9,29.72,West,267,16.1,16.1,64,0.00,BKN,SKC,0.00,9.5,WeatherDisplay:10.37,2013-03-04 18:25:00,
2013-03-04 13:30:00,38.5,27.4,29.72,NW,322,16.1,16.1,64,0.00,OVC,SKC,0.00,8.2,WeatherDisplay:10.37,2013-03-04 18:30:00,
2013-03-04 13:35:00,38.1,27.4,29.72,North,357,8.1,8.1,65,0.00,OVC,SKC,0.00,8.1,WeatherDisplay:10.37,2013-03-04 18:35:00,
2013-03-04 13:40:00,38.0,27.3,29.72,NNW,342,19.6,19.6,65,0.00,OVC,SKC,0.00,8.8,WeatherDisplay:10.37,2013-03-04 18:40:00,
2013-03-04 13:45:00,37.7,27.0,29.72,WSW,250,9.2,9.2,65,0.00,OVC,SKC,0.00,8.8,WeatherDisplay:10.37,2013-03-04 18:45:00,
2013-03-04 13:50:00,37.5,27.2,29.72,NW,320,10.4,10.4,66,0.00,OVC,SKC,0.00,10.1,WeatherDisplay:10.37,2013-03-04 18:50:00,
2013-03-04 13:55:00,37.7,27.4,29.72,North,7,5.8,5.8,66,0.00,OVC,SKC,0.00,9.5,WeatherDisplay:10.37,2013-03-04 18:55:00,
2013-03-04 14:00:00,38.3,27.6,29.72,North,349,10.4,10.4,65,0.00,OVC,SKC,0.00,8.8,WeatherDisplay:10.37,2013-03-04 19:00:00,
2013-03-04 14:05:00,38.8,28.0,29.72,NNW,340,11.5,11.5,65,0.00,OVC,SKC,0.00,12.6,WeatherDisplay:10.37,2013-03-04 19:05:00,
2013-03-04 14:10:00,38.6,27.8,29.72,NNW,335,9.2,9.2,65,0.00,OVC,SKC,0.00,8.4,WeatherDisplay:10.37,2013-03-04 19:10:00,
2013-03-04 14:15:00,38.9,28.1,29.72,West,267,8.2,8.2,65,0.00,OVC,SKC,0.00,11.9,WeatherDisplay:10.37,2013-03-04 19:15:00,
2013-03-04 14:20:00,39.1,27.9,29.73,NNW,330,11.5,11.5,64,0.00,OVC,SKC,0.00,12.4,WeatherDisplay:10.37,2013-03-04 19:20:00,
2013-03-04 14:25:00,39.2,28.0,29.72,WNW,296,15.0,15.0,64,0.00,OVC,SKC,0.00,10.8,WeatherDisplay:10.37,2013-03-04 19:25:00,
2013-03-04 14:30:00,39.0,27.8,29.72,NNW,332,24.2,24.2,64,0.00,OVC,SKC,0.00,12.0,WeatherDisplay:10.37,2013-03-04 19:30:00,
2013-03-04 14:35:00,38.9,28.1,29.72,NW,313,10.4,10.4,65,0.00,OVC,SKC,0.00,9.9,WeatherDisplay:10.37,2013-03-04 19:35:00,
2013-03-04 14:40:00,39.0,27.8,29.72,West,268,9.2,9.2,64,0.00,OVC,SKC,0.00,11.1,WeatherDisplay:10.37,2013-03-04 19:40:00,
2013-03-04 14:45:00,38.8,28.0,29.72,NW,322,6.9,6.9,65,0.00,OVC,SKC,0.00,10.7,WeatherDisplay:10.37,2013-03-04 19:45:00,
2013-03-04 14:50:00,38.8,28.0,29.73,North,360,5.8,5.8,65,0.00,OVC,SKC,0.00,11.2,WeatherDisplay:10.37,2013-03-04 19:50:00,
2013-03-04 14:55:00,38.8,28.0,29.73,WNW,285,11.5,11.5,65,0.00,OVC,SKC,0.00,13.7,WeatherDisplay:10.37,2013-03-04 19:55:00,
2013-03-04 15:00:00,38.5,28.1,29.73,West,281,11.4,11.4,66,0.00,OVC,SKC,0.00,12.8,WeatherDisplay:10.37,2013-03-04 20:00:00,
2013-03-04 15:05:00,38.6,28.2,29.73,North,357,5.4,5.4,66,0.00,OVC,SKC,0.00,10.1,WeatherDisplay:10.37,2013-03-04 20:05:00,
2013-03-04 15:10:00,38.6,28.2,29.73,North,354,8.1,8.1,66,0.00,OVC,SKC,0.00,11.3,WeatherDisplay:10.37,2013-03-04 20:10:00,
2013-03-04 15:15:00,38.5,27.7,29.73,NW,313,18.4,18.4,65,0.00,OVC,SKC,0.00,13.1,WeatherDisplay:10.37,2013-03-04 20:15:00,
2013-03-04 15:20:00,37.6,26.9,29.73,West,272,14.8,14.8,65,0.00,OVC,SKC,0.00,12.0,WeatherDisplay:10.37,2013-03-04 20:20:00,
2013-03-04 15:25:00,37.0,27.1,29.73,SW,219,13.8,13.8,67,0.00,OVC,SKC,0.00,14.9,WeatherDisplay:10.37,2013-03-04 20:25:00,
2013-03-04 15:30:00,36.5,26.6,29.73,WNW,296,15.0,15.0,67,0.00,OVC,SKC,0.00,9.0,WeatherDisplay:10.37,2013-03-04 20:30:00,
2013-03-04 15:35:00,37.0,27.1,29.73,NNW,330,10.4,10.4,67,0.00,OVC,SKC,0.00,15.7,WeatherDisplay:10.37,2013-03-04 20:35:00,
2013-03-04 15:40:00,37.2,26.9,29.73,NW,309,9.2,9.2,66,0.00,OVC,SKC,0.00,11.1,WeatherDisplay:10.37,2013-03-04 20:40:00,
2013-03-04 15:45:00,36.8,26.9,29.73,NW,304,9.2,9.2,67,0.00,OVC,SKC,0.00,8.5,WeatherDisplay:10.37,2013-03-04 20:45:00,
2013-03-04 15:50:00,36.9,27.0,29.73,North,352,15.0,15.0,67,0.00,OVC,SKC,0.00,14.0,WeatherDisplay:10.37,2013-03-04 20:50:00,
2013-03-04 15:55:00,37.1,26.8,29.73,NNW,335,11.5,11.5,66,0.00,OVC,SKC,0.00,14.3,WeatherDisplay:10.37,2013-03-04 20:55:00,
2013-03-04 16:00:00,37.7,27.4,29.73,NNW,329,13.8,13.8,66,0.00,CLR,SKC,0.00,12.1,WeatherDisplay:10.37,2013-03-04 21:00:00,
2013-03-04 16:05:00,38.2,27.8,29.74,West,275,8.1,8.1,66,0.00,CLR,SKC,0.00,14.9,WeatherDisplay:10.37,2013-03-04 21:05:00,
2013-03-04 16:10:00,38.6,27.8,29.74,West,272,10.4,10.4,65,0.00,CLR,SKC,0.00,9.4,WeatherDisplay:10.37,2013-03-04 21:10:00,
2013-03-04 16:15:00,38.2,27.8,29.74,NW,305,15.4,15.4,66,0.00,CLR,SKC,0.00,12.8,WeatherDisplay:10.37,2013-03-04 21:15:00,
2013-03-04 16:20:00,37.7,27.4,29.74,North,3,17.3,17.3,66,0.00,CLR,SKC,0.00,17.6,WeatherDisplay:10.37,2013-03-04 21:20:00,
2013-03-04 16:25:00,37.1,26.8,29.75,North,360,11.5,11.5,66,0.00,CLR,SKC,0.00,11.3,WeatherDisplay:10.37,2013-03-04 21:25:00,
2013-03-04 16:31:00,37.2,27.2,29.75,NNW,343,0.0,0.0,67,0.00,CLR,SKC,0.00,6.7,WeatherDisplay:10.37,2013-03-04 21:31:00,
2013-03-04 16:36:00,36.6,26.3,29.75,NW,322,6.9,6.9,66,0.00,CLR,SKC,0.00,6.8,WeatherDisplay:10.37,2013-03-04 21:36:00,
2013-03-04 16:41:00,36.6,27.0,29.75,NNW,343,5.8,5.8,68,0.00,CLR,SKC,0.00,11.8,WeatherDisplay:10.37,2013-03-04 21:41:00,
2013-03-04 16:46:00,36.6,27.0,29.75,North,3,6.9,6.9,68,0.00,CLR,SKC,0.00,11.9,WeatherDisplay:10.37,2013-03-04 21:46:00,
2013-03-04 16:51:00,36.4,26.8,29.75,WNW,302,10.4,10.4,68,0.00,CLR,SKC,0.00,10.6,WeatherDisplay:10.37,2013-03-04 21:51:00,
2013-03-04 16:56:00,36.3,26.7,29.75,NW,315,9.9,9.9,68,0.00,CLR,SKC,0.00,10.7,WeatherDisplay:10.37,2013-03-04 21:56:00,
2013-03-04 17:01:00,35.8,26.3,29.75,WNW,285,10.4,10.4,68,0.00,CLR,SKC,0.00,8.7,WeatherDisplay:10.37,2013-03-04 22:01:00,
2013-03-04 17:06:00,35.7,26.5,29.75,WNW,292,8.1,8.1,69,0.00,CLR,SKC,0.00,7.3,WeatherDisplay:10.37,2013-03-04 22:06:00,
2013-03-04 17:11:00,35.6,26.4,29.75,West,278,17.3,17.3,69,0.00,CLR,SKC,0.00,5.2,WeatherDisplay:10.37,2013-03-04 22:11:00,
2013-03-04 17:16:00,35.5,26.3,29.76,NNE,31,9.2,9.2,69,0.00,CLR,SKC,0.00,5.2,WeatherDisplay:10.37,2013-03-04 22:16:00,
2013-03-04 17:21:00,34.7,25.9,29.76,North,359,9.2,9.2,70,0.00,CLR,SKC,0.00,3.7,WeatherDisplay:10.37,2013-03-04 22:21:00,
2013-03-04 17:26:00,34.2,25.8,29.76,North,357,9.2,9.2,71,0.00,CLR,SKC,0.00,3.8,WeatherDisplay:10.37,2013-03-04 22:26:00,
2013-03-04 17:31:00,34.0,25.6,29.76,North,10,3.5,3.5,71,0.00,CLR,SKC,0.00,3.8,WeatherDisplay:10.37,2013-03-04 22:31:00,
2013-03-04 17:36:00,33.8,25.7,29.76,North,1,5.6,5.6,72,0.00,CLR,SKC,0.00,1.5,WeatherDisplay:10.37,2013-03-04 22:36:00,
2013-03-04 17:41:00,33.5,25.4,29.77,NNW,333,15.0,15.0,72,0.00,CLR,SKC,0.00,1.5,WeatherDisplay:10.37,2013-03-04 22:41:00,
2013-03-04 17:46:00,32.9,25.2,29.77,NNW,346,7.0,7.0,73,0.00,CLR,SKC,0.00,3.8,WeatherDisplay:10.37,2013-03-04 22:46:00,
2013-03-04 17:51:00,32.3,24.9,29.77,NW,304,13.8,13.8,74,0.00,CLR,SKC,0.00,1.5,WeatherDisplay:10.37,2013-03-04 22:51:00,
2013-03-04 17:56:00,32.2,24.8,29.77,North,360,6.9,6.9,74,0.00,CLR,SKC,0.00,1.5,WeatherDisplay:10.37,2013-03-04 22:56:00,
2013-03-04 18:01:00,31.5,24.2,29.77,NW,323,8.1,8.1,74,0.00,CLR,SKC,0.00,0.0,WeatherDisplay:10.37,2013-03-04 23:01:00,
2013-03-04 18:06:00,31.5,24.2,29.77,NNW,333,4.6,4.6,74,0.00,CLR,SKC,0.00,0.0,WeatherDisplay:10.37,2013-03-04 23:06:00,
2013-03-04 18:11:00,31.5,24.5,29.78,North,360,10.4,10.4,75,0.00,CLR,SKC,0.00,0.0,WeatherDisplay:10.37,2013-03-04 23:11:00,
2013-03-04 18:16:00,31.6,24.6,29.78,North,356,6.9,6.9,75,0.00,CLR,SKC,0.00,0.0,WeatherDisplay:10.37,2013-03-04 23:16:00,
2013-03-04 18:22:00,31.3,24.3,29.79,NW,325,9.2,9.2,75,0.00,CLR,SKC,0.00,0.0,WeatherDisplay:10.37,2013-03-04 23:22:00,
2013-03-04 18:27:00,31.4,24.7,29.79,NW,323,6.9,6.9,76,0.00,CLR,SKC,0.00,0.0,WeatherDisplay:10.37,2013-03-04 23:27:00,
2013-03-04 18:32:00,31.5,24.8,29.79,WNW,284,10.4,10.4,76,0.00,CLR,SKC,0.00,0.0,WeatherDisplay:10.37,2013-03-04 23:32:00,
2013-03-04 18:37:00,31.7,25.0,29.79,NW,309,3.5,0.0,76,0.00,CLR,SKC,0.00,0.0,WeatherDisplay:10.37,2013-03-04 23:37:00,
2013-03-04 18:42:00,31.4,24.7,29.79,WNW,298,8.1,8.1,76,0.00,CLR,SKC,0.00,0.0,WeatherDisplay:10.37,2013-03-04 23:42:00,
2013-03-04 18:47:00,31.4,24.7,29.79,WNW,302,4.6,4.6,76,0.00,CLR,SKC,0.00,0.0,WeatherDisplay:10.37,2013-03-04 23:47:00,
2013-03-04 18:52:00,31.4,24.7,29.79,North,352,11.5,11.5,76,0.00,CLR,SKC,0.00,0.0,WeatherDisplay:10.37,2013-03-04 23:52:00,
2013-03-04 18:57:00,31.7,25.0,29.80,WNW,292,6.9,6.9,76,0.00,CLR,SKC,0.00,0.0,WeatherDisplay:10.37,2013-03-04 23:57:00,
2013-03-04 19:02:00,31.6,25.2,29.81,North,7,9.2,9.2,77,0.00,CLR,SKC,0.00,0.0,WeatherDisplay:10.37,2013-03-05 00:02:00,
2013-03-04 19:07:00,31.6,25.2,29.81,North,353,12.7,12.7,77,0.00,CLR,SKC,0.00,0.0,WeatherDisplay:10.37,2013-03-05 00:07:00,
2013-03-04 19:12:00,32.0,25.3,29.81,NW,322,5.3,5.3,76,0.00,CLR,SKC,0.00,0.0,WeatherDisplay:10.37,2013-03-05 00:12:00,
2013-03-04 19:17:00,31.6,25.2,29.81,North,10,9.2,9.2,77,0.00,CLR,SKC,0.00,0.0,WeatherDisplay:10.37,2013-03-05 00:17:00,
2013-03-04 19:22:00,31.6,25.2,29.81,NNW,336,9.2,9.2,77,0.00,CLR,SKC,0.00,0.0,WeatherDisplay:10.37,2013-03-05 00:22:00,
2013-03-04 19:27:00,31.8,25.4,29.81,NNW,342,10.4,10.4,77,0.00,CLR,SKC,0.00,0.0,WeatherDisplay:10.37,2013-03-05 00:27:00,
2013-03-04 19:32:00,31.5,25.1,29.82,NNW,347,13.8,13.8,77,0.00,CLR,SKC,0.00,0.0,WeatherDisplay:10.37,2013-03-05 00:32:00,
2013-03-04 19:37:00,31.4,25.0,29.82,NNE,23,6.9,6.9,77,0.00,CLR,SKC,0.00,0.0,WeatherDisplay:10.37,2013-03-05 00:37:00,
2013-03-04 19:42:00,31.4,25.0,29.82,NNW,340,6.9,6.9,77,0.00,CLR,SKC,0.00,0.0,WeatherDisplay:10.37,2013-03-05 00:42:00,
2013-03-04 19:47:00,31.5,25.1,29.82,NW,312,17.3,17.3,77,0.00,CLR,SKC,0.00,0.0,WeatherDisplay:10.37,2013-03-05 00:47:00,
2013-03-04 19:52:00,31.7,25.0,29.82,NNW,333,8.1,8.1,76,0.00,CLR,SKC,0.00,0.0,WeatherDisplay:10.37,2013-03-05 00:52:00,
2013-03-04 19:57:00,32.0,25.6,29.82,North,360,9.2,9.2,77,0.00,CLR,SKC,0.00,0.0,WeatherDisplay:10.37,2013-03-05 00:57:00,
2013-03-04 20:02:00,32.1,25.7,29.82,West,267,0.0,0.0,77,0.00,CLR,SKC,0.00,0.0,WeatherDisplay:10.37,2013-03-05 01:02:00,
2013-03-04 20:07:00,31.5,25.1,29.82,NNE,13,6.9,6.9,77,0.00,CLR,SKC,0.00,0.0,WeatherDisplay:10.37,2013-03-05 01:07:00,
2013-03-04 20:13:00,31.8,25.4,29.82,NNW,336,10.4,10.4,77,0.00,CLR,SKC,0.00,0.0,WeatherDisplay:10.37,2013-03-05 01:13:00,
2013-03-04 20:18:00,31.5,25.1,29.82,NNW,332,6.9,6.9,77,0.00,CLR,SKC,0.00,0.0,WeatherDisplay:10.37,2013-03-05 01:18:00,
2013-03-04 20:23:00,31.2,24.5,29.82,NW,315,6.9,6.9,76,0.00,CLR,SKC,0.00,0.0,WeatherDisplay:10.37,2013-03-05 01:23:00,
2013-03-04 20:28:00,31.6,25.2,29.82,West,270,5.8,5.8,77,0.00,CLR,SKC,0.00,0.0,WeatherDisplay:10.37,2013-03-05 01:28:00,
2013-03-04 20:33:00,31.6,25.2,29.82,North,354,6.9,6.9,77,0.00,CLR,SKC,0.00,0.0,WeatherDisplay:10.37,2013-03-05 01:33:00,
2013-03-04 20:38:00,31.8,25.4,29.82,North,352,13.8,13.8,77,0.00,CLR,SKC,0.00,0.0,WeatherDisplay:10.37,2013-03-05 01:38:00,
2013-03-04 20:43:00,31.9,25.5,29.83,WNW,302,0.0,0.0,77,0.00,CLR,SKC,0.00,0.0,WeatherDisplay:10.37,2013-03-05 01:43:00,
2013-03-04 20:48:00,31.6,25.2,29.83,NNW,333,4.6,4.6,77,0.00,CLR,SKC,0.00,0.0,WeatherDisplay:10.37,2013-03-05 01:48:00,
2013-03-04 20:53:00,31.2,25.1,29.83,North,359,0.0,0.0,78,0.00,CLR,SKC,0.00,0.0,WeatherDisplay:10.37,2013-03-05 01:53:00,
2013-03-04 20:58:00,31.4,25.0,29.83,North,6,6.1,6.1,77,0.00,CLR,SKC,0.00,0.0,WeatherDisplay:10.37,2013-03-05 01:58:00,
2013-03-04 21:03:00,31.5,25.1,29.83,WNW,301,0.0,0.0,77,0.00,CLR,SKC,0.00,0.0,WeatherDisplay:10.37,2013-03-05 02:03:00,
2013-03-04 21:08:00,31.5,25.4,29.83,West,263,5.8,5.8,78,0.00,CLR,SKC,0.00,0.0,WeatherDisplay:10.37,2013-03-05 02:08:00,
2013-03-04 21:13:00,32.0,25.9,29.83,WNW,294,8.5,8.5,78,0.00,CLR,SKC,0.00,0.0,WeatherDisplay:10.37,2013-03-05 02:13:00,
2013-03-04 21:18:00,31.6,25.5,29.83,NNE,18,12.7,12.7,78,0.00,CLR,SKC,0.00,0.0,WeatherDisplay:10.37,2013-03-05 02:18:00,
2013-03-04 21:23:00,31.4,25.3,29.83,NNW,333,9.2,9.2,78,0.00,CLR,SKC,0.00,0.0,WeatherDisplay:10.37,2013-03-05 02:23:00,
2013-03-04 21:30:00,30.9,24.8,29.83,North,0,10.4,0.0,78,0.00,CLR,SKC,0.00,0.0,WeatherDisplay:10.37,2013-03-05 02:30:00,
2013-03-04 21:35:00,31.6,25.5,29.84,North,8,0.0,0.0,78,0.00,CLR,SKC,0.00,0.0,WeatherDisplay:10.37,2013-03-05 02:35:00,
2013-03-04 21:40:00,31.8,25.7,29.84,North,354,0.0,0.0,78,0.00,CLR,SKC,0.00,0.0,WeatherDisplay:10.37,2013-03-05 02:40:00,
2013-03-04 21:45:00,31.4,25.3,29.84,NNW,340,5.8,5.8,78,0.00,CLR,SKC,0.00,0.0,WeatherDisplay:10.37,2013-03-05 02:45:00,
2013-03-04 21:50:00,31.9,25.8,29.84,NNW,339,4.6,0.0,78,0.00,CLR,SKC,0.00,0.0,WeatherDisplay:10.37,2013-03-05 02:50:00,
2013-03-04 21:55:00,31.4,25.6,29.84,WNW,282,4.6,4.6,79,0.00,CLR,SKC,0.00,0.0,WeatherDisplay:10.37,2013-03-05 02:55:00,
2013-03-04 22:00:00,31.4,25.6,29.85,WNW,296,2.3,2.3,79,0.00,CLR,SKC,0.00,0.0,WeatherDisplay:10.37,2013-03-05 03:00:00,
2013-03-04 22:05:00,31.7,25.9,29.84,NW,309,5.8,5.8,79,0.00,CLR,SKC,0.00,0.0,WeatherDisplay:10.37,2013-03-05 03:05:00,
2013-03-04 22:10:00,31.1,25.3,29.84,NNE,24,3.0,3.0,79,0.00,CLR,SKC,0.00,0.0,WeatherDisplay:10.37,2013-03-05 03:10:00,
2013-03-04 22:15:00,31.2,25.4,29.84,NW,309,0.0,0.0,79,0.00,CLR,SKC,0.00,0.0,WeatherDisplay:10.37,2013-03-05 03:15:00,
2013-03-04 22:21:00,31.2,25.4,29.84,NNE,24,8.1,8.1,79,0.00,CLR,SKC,0.00,0.0,WeatherDisplay:10.37,2013-03-05 03:21:00,
2013-03-04 22:26:00,31.5,25.7,29.85,WNW,296,4.6,4.6,79,0.00,CLR,SKC,0.00,0.0,WeatherDisplay:10.37,2013-03-05 03:26:00,
2013-03-04 22:31:00,31.3,25.5,29.85,West,271,3.5,3.5,79,0.00,CLR,SKC,0.00,0.0,WeatherDisplay:10.37,2013-03-05 03:31:00,
2013-03-04 22:36:00,31.3,25.5,29.85,WNW,294,13.8,13.8,79,0.00,CLR,SKC,0.00,0.0,WeatherDisplay:10.37,2013-03-05 03:36:00,
2013-03-04 22:41:00,31.1,25.7,29.84,NW,318,5.8,5.8,80,0.00,CLR,SKC,0.00,0.0,WeatherDisplay:10.37,2013-03-05 03:41:00,
2013-03-04 22:46:00,30.9,25.2,29.84,North,360,6.9,6.9,79,0.00,CLR,SKC,0.00,0.0,WeatherDisplay:10.37,2013-03-05 03:46:00,
2013-03-04 22:51:00,31.2,25.7,29.85,NNE,21,8.1,8.1,80,0.00,CLR,SKC,0.00,0.0,WeatherDisplay:10.37,2013-03-05 03:51:00,
2013-03-04 22:56:00,31.3,25.8,29.85,NNW,332,3.5,3.5,80,0.00,CLR,SKC,0.00,0.0,WeatherDisplay:10.37,2013-03-05 03:56:00,
2013-03-04 23:01:00,30.6,25.2,29.85,West,265,4.6,4.6,80,0.00,CLR,SKC,0.00,0.0,WeatherDisplay:10.37,2013-03-05 04:01:00,
2013-03-04 23:06:00,30.9,25.5,29.85,NNW,342,5.8,5.8,80,0.00,CLR,SKC,0.00,0.0,WeatherDisplay:10.37,2013-03-05 04:06:00,
2013-03-04 23:11:00,31.1,25.7,29.85,NW,313,11.5,11.5,80,0.00,CLR,SKC,0.00,0.0,WeatherDisplay:10.37,2013-03-05 04:11:00,
2013-03-04 23:16:00,30.8,25.4,29.85,North,0,9.2,9.2,80,0.00,CLR,SKC,0.00,0.0,WeatherDisplay:10.37,2013-03-05 04:16:00,
2013-03-04 23:21:00,31.0,25.6,29.85,NNW,335,6.9,6.9,80,0.00,CLR,SKC,0.00,0.0,WeatherDisplay:10.37,2013-03-05 04:21:00,
2013-03-04 23:26:00,30.6,25.2,29.85,NNW,328,10.4,10.4,80,0.00,CLR,SKC,0.00,0.0,WeatherDisplay:10.37,2013-03-05 04:26:00,
2013-03-04 23:31:00,31.0,25.6,29.85,NW,323,4.6,4.6,80,0.00,CLR,SKC,0.00,0.0,WeatherDisplay:10.37,2013-03-05 04:31:00,
2013-03-04 23:36:00,30.7,25.3,29.85,North,360,0.0,0.0,80,0.00,CLR,SKC,0.00,0.0,WeatherDisplay:10.37,2013-03-05 04:36:00,
2013-03-04 23:41:00,31.0,25.6,29.86,NNW,343,6.9,6.9,80,0.00,CLR,SKC,0.00,0.0,WeatherDisplay:10.37,2013-03-05 04:41:00,
2013-03-04 23:46:00,30.9,25.5,29.85,NW,318,8.1,8.1,80,0.00,CLR,SKC,0.00,0.0,WeatherDisplay:10.37,2013-03-05 04:46:00,
2013-03-04 23:51:00,30.9,25.8,29.86,NNE,13,8.2,8.2,81,0.00,CLR,SKC,0.00,0.0,WeatherDisplay:10.37,2013-03-05 04:51:00,
2013-03-04 23:56:00,31.0,25.9,29.86,NNE,14,9.2,9.2,81,0.00,CLR,SKC,0.00,0.0,WeatherDisplay:10.37,2013-03-05 04:56:00,